createdAt,value
2024-01-16T00:00:16.124Z,2.17
2024-01-16T00:02:39.209Z,1.92
2024-01-16T00:05:01.981Z,1.92
2024-01-16T00:07:24.761Z,2.10
2024-01-16T00:09:47.963Z,2.10
2024-01-16T00:12:11.954Z,1.98
2024-01-16T00:14:38.845Z,2.03
2024-01-16T00:17:01.941Z,1.92
2024-01-16T00:19:24.809Z,1.90
2024-01-16T00:21:48.247Z,2.07
2024-01-16T00:24:13.438Z,1.58
2024-01-16T00:26:38.280Z,1.63
2024-01-16T00:29:02.107Z,1.50
2024-01-16T00:31:24.827Z,1.60
2024-01-16T00:33:47.579Z,1.50
2024-01-16T00:36:13.074Z,1.40
2024-01-16T00:38:36.493Z,1.52
2024-01-16T00:40:59.184Z,1.60
2024-01-16T00:43:22.013Z,1.90
2024-01-16T00:45:44.791Z,2.17
2024-01-16T00:48:17.446Z,2.00
2024-01-16T00:50:40.599Z,2.75
2024-01-16T00:53:03.369Z,3.22
2024-01-16T00:55:26.059Z,4.10
2024-01-16T00:57:48.791Z,4.50
2024-01-16T01:00:14.571Z,4.15
2024-01-16T01:02:39.198Z,4.63
2024-01-16T01:05:02.247Z,5.07
2024-01-16T01:07:26.603Z,4.70
2024-01-16T01:09:49.201Z,4.90
2024-01-16T01:12:12.599Z,4.93
2024-01-16T01:14:35.845Z,5.57
2024-01-16T01:16:59.011Z,5.05
2024-01-16T01:19:21.841Z,4.78
2024-01-16T01:21:44.655Z,4.90
2024-01-16T01:24:10.475Z,5.55
2024-01-16T01:26:33.363Z,5.20
2024-01-16T01:28:56.071Z,4.78
2024-01-16T01:31:18.676Z,5.25
2024-01-16T01:33:41.533Z,5.03
2024-01-16T01:36:04.424Z,5.20
2024-01-16T01:38:27.111Z,5.15
2024-01-16T01:40:49.796Z,5.38
2024-01-16T01:43:20.898Z,5.18
2024-01-16T01:45:43.639Z,4.70
2024-01-16T01:48:12.146Z,5.32
2024-01-16T01:50:35.479Z,4.38
2024-01-16T01:52:58.142Z,5.05
2024-01-16T01:55:21.099Z,4.63
2024-01-16T01:57:44.655Z,5.00
2024-01-16T02:00:11.968Z,4.70
2024-01-16T02:02:39.591Z,4.47
2024-01-16T02:05:02.966Z,4.85
2024-01-16T02:07:26.251Z,4.78
2024-01-16T02:09:50.308Z,4.33
2024-01-16T02:12:13.952Z,4.53
2024-01-16T02:14:38.840Z,4.43
2024-01-16T02:17:01.789Z,4.40
2024-01-16T02:19:26.774Z,4.13
2024-01-16T02:21:51.386Z,4.50
2024-01-16T02:24:18.953Z,4.50
2024-01-16T02:26:42.357Z,4.50
2024-01-16T02:29:05.822Z,4.55
2024-01-16T02:31:28.594Z,4.55
2024-01-16T02:33:51.392Z,3.80
2024-01-16T02:36:15.790Z,4.25
2024-01-16T02:38:38.866Z,4.10
2024-01-16T02:41:01.532Z,3.90
2024-01-16T02:43:24.663Z,4.22
2024-01-16T02:45:47.427Z,4.30
2024-01-16T02:48:13.198Z,4.05
2024-01-16T02:50:39.634Z,3.90
2024-01-16T02:53:02.309Z,4.32
2024-01-16T02:55:25.872Z,4.28
2024-01-16T02:57:48.557Z,4.17
2024-01-16T03:00:12.528Z,4.07
2024-01-16T03:02:35.952Z,4.32
2024-01-16T03:04:58.638Z,4.63
2024-01-16T03:07:21.358Z,4.20
2024-01-16T03:09:44.061Z,4.60
2024-01-16T03:12:07.212Z,4.82
2024-01-16T03:14:35.472Z,4.57
2024-01-16T03:16:58.345Z,4.80
2024-01-16T03:19:21.130Z,4.80
2024-01-16T03:21:44.005Z,4.47
2024-01-16T03:24:12.057Z,4.22
2024-01-16T03:26:35.360Z,4.40
2024-01-16T03:28:58.038Z,4.25
2024-01-16T03:31:22.597Z,4.35
2024-01-16T03:33:45.480Z,3.60
2024-01-16T03:36:11.823Z,3.47
2024-01-16T03:38:35.749Z,3.28
2024-01-16T03:40:58.420Z,3.85
2024-01-16T03:43:21.053Z,4.03
2024-01-16T03:45:43.675Z,3.60
2024-01-16T03:48:10.651Z,3.28
2024-01-16T03:50:34.989Z,3.03
2024-01-16T03:52:57.625Z,3.35
2024-01-16T03:55:20.515Z,2.97
2024-01-16T03:57:43.518Z,3.00
2024-01-16T04:00:10.265Z,2.50
2024-01-16T04:02:33.621Z,2.78
2024-01-16T04:04:56.459Z,3.00
2024-01-16T04:07:19.438Z,3.10
2024-01-16T04:09:44.198Z,2.90
2024-01-16T04:12:11.661Z,3.30
2024-01-16T04:14:37.933Z,3.28
2024-01-16T04:17:00.505Z,3.30
2024-01-16T04:19:23.698Z,3.08
2024-01-16T04:21:46.528Z,3.30
2024-01-16T04:24:11.903Z,2.90
2024-01-16T04:26:38.928Z,2.65
2024-01-16T04:29:01.782Z,2.90
2024-01-16T04:31:24.344Z,3.17
2024-01-16T04:33:47.095Z,2.57
2024-01-16T04:36:14.102Z,2.72
2024-01-16T04:38:38.593Z,2.65
2024-01-16T04:41:04.806Z,2.72
2024-01-16T04:43:27.485Z,2.63
2024-01-16T04:45:50.088Z,3.20
2024-01-16T04:48:16.452Z,2.75
2024-01-16T04:50:39.759Z,2.50
2024-01-16T04:53:03.197Z,2.50
2024-01-16T04:55:25.904Z,2.78
2024-01-16T04:57:48.645Z,2.40
2024-01-16T05:00:12.399Z,2.58
2024-01-16T05:02:35.592Z,2.90
2024-01-16T05:04:58.479Z,2.80
2024-01-16T05:07:21.877Z,2.83
2024-01-16T05:09:46.394Z,2.50
2024-01-16T05:12:11.830Z,2.30
2024-01-16T05:14:34.958Z,2.20
2024-01-16T05:16:57.710Z,2.53
2024-01-16T05:19:20.510Z,2.03
2024-01-16T05:21:43.256Z,2.07
2024-01-16T05:24:06.181Z,2.40
2024-01-16T05:26:33.138Z,2.47
2024-01-16T05:28:55.765Z,2.38
2024-01-16T05:31:18.548Z,2.67
2024-01-16T05:33:41.336Z,2.40
2024-01-16T05:36:05.082Z,2.33
2024-01-16T05:38:28.077Z,2.28
2024-01-16T05:40:50.795Z,2.00
2024-01-16T05:43:13.407Z,2.33
2024-01-16T05:45:36.064Z,2.33
2024-01-16T05:47:58.860Z,2.42
2024-01-16T05:50:21.802Z,2.53
2024-01-16T05:52:46.983Z,2.55
2024-01-16T05:55:09.966Z,2.33
2024-01-16T05:57:35.558Z,2.40
2024-01-16T05:59:58.831Z,2.58
2024-01-16T06:02:21.535Z,2.38
2024-01-16T06:04:44.213Z,2.40
2024-01-16T06:07:08.486Z,2.35
2024-01-16T06:09:31.325Z,2.40
2024-01-16T06:11:54.056Z,2.35
2024-01-16T06:14:22.898Z,2.15
2024-01-16T06:16:45.822Z,1.90
2024-01-16T06:19:09.432Z,2.03
2024-01-16T06:21:32.392Z,2.40
2024-01-16T06:23:55.083Z,2.47
2024-01-16T06:26:18.037Z,2.25
2024-01-16T06:28:43.376Z,2.45
2024-01-16T06:31:06.520Z,2.75
2024-01-16T06:33:29.888Z,2.10
2024-01-16T06:35:54.422Z,2.10
2024-01-16T06:38:17.313Z,2.30
2024-01-16T06:40:40.517Z,2.40
2024-01-16T06:43:03.498Z,2.33
2024-01-16T06:45:27.619Z,2.40
2024-01-16T06:47:52.091Z,2.38
2024-01-16T06:50:15.456Z,2.53
2024-01-16T06:52:39.554Z,2.40
2024-01-16T06:55:02.379Z,2.50
2024-01-16T06:57:25.867Z,2.30
2024-01-16T06:59:48.892Z,2.30
2024-01-16T07:02:11.842Z,2.70
2024-01-16T07:04:35.028Z,2.90
2024-01-16T07:06:57.825Z,2.80
2024-01-16T07:09:22.259Z,2.30
2024-01-16T07:11:45.355Z,2.47
2024-01-16T07:14:09.215Z,2.30
2024-01-16T07:16:32.109Z,2.30
2024-01-16T07:18:56.873Z,2.72
2024-01-16T07:21:20.358Z,3.27
2024-01-16T07:23:43.247Z,3.47
2024-01-16T07:26:07.213Z,3.72
2024-01-16T07:28:30.169Z,3.53
2024-01-16T07:30:54.874Z,3.53
2024-01-16T07:33:17.760Z,2.37
2024-01-16T07:35:42.363Z,3.53
2024-01-16T07:38:05.869Z,4.30
2024-01-16T07:40:28.852Z,4.00
2024-01-16T07:42:51.700Z,3.88
2024-01-16T07:45:14.378Z,3.80
2024-01-16T07:47:37.704Z,3.72
2024-01-16T07:50:03.764Z,4.30
2024-01-16T07:52:28.963Z,5.10
2024-01-16T07:54:51.906Z,5.05
2024-01-16T07:57:15.056Z,3.77
2024-01-16T07:59:39.125Z,5.03
2024-01-16T08:02:02.068Z,4.00
2024-01-16T08:04:24.864Z,3.95
2024-01-16T08:06:48.400Z,3.85
2024-01-16T08:09:13.894Z,3.83
2024-01-16T08:11:38.001Z,4.60
2024-01-16T08:14:00.962Z,4.97
2024-01-16T08:16:23.745Z,5.40
2024-01-16T08:18:46.789Z,4.65
2024-01-16T08:21:09.545Z,4.40
2024-01-16T08:23:32.475Z,4.60
2024-01-16T08:25:55.289Z,4.97
2024-01-16T08:28:19.882Z,5.53
2024-01-16T08:30:44.446Z,5.85
2024-01-16T08:33:10.623Z,5.63
2024-01-16T08:35:33.434Z,5.63
2024-01-16T08:37:56.787Z,5.18
2024-01-16T08:40:19.865Z,5.22
2024-01-16T08:42:42.697Z,5.57
2024-01-16T08:45:06.567Z,5.27
2024-01-16T08:47:29.469Z,5.18
2024-01-16T08:49:52.336Z,6.32
2024-01-16T08:52:15.495Z,6.20
2024-01-16T08:54:38.556Z,6.35
2024-01-16T08:57:01.610Z,5.60
2024-01-16T08:59:27.236Z,5.55
2024-01-16T09:01:50.207Z,6.00
2024-01-16T09:04:14.768Z,4.85
2024-01-16T09:06:38.350Z,3.60
2024-01-16T09:09:01.472Z,3.70
2024-01-16T09:11:25.068Z,4.00
2024-01-16T09:13:49.228Z,3.30
2024-01-16T09:16:12.230Z,4.10
2024-01-16T09:18:35.138Z,3.30
2024-01-16T09:20:58.986Z,3.00
2024-01-16T09:23:23.546Z,3.17
2024-01-16T09:25:48.784Z,2.97
2024-01-16T09:28:13.461Z,4.78
2024-01-16T09:30:36.761Z,4.65
2024-01-16T09:33:01.901Z,5.50
2024-01-16T09:35:25.718Z,5.68
2024-01-16T09:37:48.908Z,5.80
2024-01-16T09:40:12.271Z,5.55
2024-01-16T09:42:35.327Z,5.50
2024-01-16T09:44:59.745Z,5.17
2024-01-16T09:47:25.829Z,4.30
2024-01-16T09:49:50.182Z,4.82
2024-01-16T09:52:13.139Z,5.53
2024-01-16T09:54:35.962Z,5.10
2024-01-16T09:57:00.625Z,4.70
2024-01-16T09:59:24.608Z,3.50
2024-01-16T10:01:50.964Z,2.60
2024-01-16T10:04:15.916Z,2.45
2024-01-16T10:06:40.906Z,2.28
2024-01-16T10:09:03.956Z,2.40
2024-01-16T10:11:27.186Z,2.20
2024-01-16T10:13:50.169Z,1.75
2024-01-16T10:16:13.322Z,2.08
2024-01-16T10:18:36.661Z,2.28
2024-01-16T10:20:59.715Z,1.93
2024-01-16T10:23:34.411Z,2.20
2024-01-16T10:26:28.257Z,2.60
2024-01-16T10:28:51.254Z,2.70
2024-01-16T10:31:18.148Z,2.50
2024-01-16T10:33:42.956Z,2.40
2024-01-16T10:36:22.792Z,2.17
2024-01-16T10:38:47.133Z,1.70
2024-01-16T10:41:13.689Z,1.80
2024-01-16T10:43:37.978Z,1.60
2024-01-16T10:46:11.154Z,1.67
2024-01-16T10:48:46.601Z,1.65
2024-01-16T10:51:13.206Z,2.00
2024-01-16T10:53:36.571Z,1.70
2024-01-16T10:56:01.691Z,1.67
2024-01-16T10:58:31.166Z,1.40
2024-01-16T11:00:54.893Z,1.20
2024-01-16T11:03:26.968Z,1.10
2024-01-16T11:05:50.824Z,1.85
2024-01-16T11:08:18.436Z,1.90
2024-01-16T11:10:42.209Z,1.30
2024-01-16T11:13:06.315Z,1.33
2024-01-16T11:15:30.250Z,1.55
2024-01-16T11:17:56.008Z,1.20
2024-01-16T11:20:37.981Z,1.73
2024-01-16T11:23:04.278Z,1.17
2024-01-16T11:25:36.789Z,1.10
2024-01-16T11:28:12.697Z,1.30
2024-01-16T11:30:35.616Z,1.20
2024-01-16T11:32:58.450Z,1.65
2024-01-16T11:35:43.833Z,1.10
2024-01-16T11:38:17.767Z,1.13
2024-01-16T11:40:41.110Z,1.13
2024-01-16T11:43:33.619Z,1.30
2024-01-16T11:45:56.699Z,1.35
2024-01-16T11:48:21.106Z,1.67
2024-01-16T11:50:44.852Z,1.45
2024-01-16T11:53:08.155Z,1.50
2024-01-16T11:55:38.861Z,1.52
2024-01-16T11:58:39.198Z,1.63
2024-01-16T12:01:02.480Z,1.60
2024-01-16T12:03:33.984Z,1.60
2024-01-16T12:06:04.636Z,1.42
2024-01-16T12:08:31.529Z,1.55
2024-01-16T12:10:56.195Z,1.60
2024-01-16T12:13:19.913Z,1.33
2024-01-16T12:15:43.775Z,1.38
2024-01-16T12:18:19.669Z,1.40
2024-01-16T12:20:50.789Z,1.35
2024-01-16T12:23:16.662Z,1.98
2024-01-16T12:26:01.187Z,1.43
2024-01-16T12:28:31.719Z,2.00
2024-01-16T12:30:56.390Z,1.63
2024-01-16T12:33:23.697Z,1.88
2024-01-16T12:35:46.904Z,1.40
2024-01-16T12:38:11.455Z,1.53
2024-01-16T12:40:40.527Z,1.30
2024-01-16T12:43:05.664Z,1.45
2024-01-16T12:45:29.909Z,1.70
2024-01-16T12:47:54.953Z,1.50
2024-01-16T12:50:23.676Z,1.27
2024-01-16T12:52:46.559Z,1.85
2024-01-16T12:55:09.811Z,1.98
2024-01-16T12:57:32.999Z,2.35
2024-01-16T12:59:58.585Z,1.60
2024-01-16T13:02:26.013Z,1.40
2024-01-16T13:04:49.526Z,1.30
2024-01-16T13:07:17.715Z,1.77
2024-01-16T13:09:40.632Z,1.63
2024-01-16T13:12:03.486Z,2.20
2024-01-16T13:14:26.666Z,1.60
2024-01-16T13:16:51.101Z,1.80
2024-01-16T13:19:17.165Z,2.00
2024-01-16T13:21:39.985Z,1.80
2024-01-16T13:24:11.906Z,1.50
2024-01-16T13:26:35.177Z,0.80
2024-01-16T13:28:57.953Z,0.80
2024-01-16T13:31:20.615Z,0.40
2024-01-16T13:33:44.850Z,0.40
2024-01-16T13:36:14.478Z,0.70
2024-01-16T13:38:38.856Z,0.67
2024-01-16T13:41:03.408Z,0.57
2024-01-16T13:43:26.110Z,0.40
2024-01-16T13:45:52.876Z,0.52
2024-01-16T13:48:17.571Z,0.60
2024-01-16T13:50:40.884Z,0.50
2024-01-16T13:53:04.120Z,0.60
2024-01-16T13:55:27.425Z,0.85
2024-01-16T13:57:51.861Z,0.60
2024-01-16T14:00:18.651Z,0.63
2024-01-16T14:02:49.998Z,1.20
2024-01-16T14:05:19.226Z,1.30
2024-01-16T14:07:49.291Z,1.02
2024-01-16T14:10:13.389Z,1.00
2024-01-16T14:12:36.750Z,0.80
2024-01-16T14:15:01.878Z,0.90
2024-01-16T14:17:24.880Z,1.40
2024-01-16T14:19:47.853Z,1.17
2024-01-16T14:22:11.091Z,1.17
2024-01-16T14:24:33.834Z,1.35
2024-01-16T14:26:59.553Z,1.13
2024-01-16T14:29:22.382Z,1.02
2024-01-16T14:31:50.678Z,0.80
2024-01-16T14:34:14.485Z,0.70
2024-01-16T14:36:37.474Z,0.80
2024-01-16T14:39:00.341Z,0.57
2024-01-16T14:41:23.550Z,2.95
2024-01-16T14:43:46.781Z,0.80
2024-01-16T14:46:11.861Z,0.95
2024-01-16T14:48:34.808Z,1.00
2024-01-16T14:50:57.733Z,0.80
2024-01-16T14:53:20.641Z,1.08
2024-01-16T14:55:43.701Z,0.80
2024-01-16T14:58:09.651Z,0.80
2024-01-16T15:00:34.074Z,0.70
2024-01-16T15:02:58.318Z,0.77
2024-01-16T15:05:22.659Z,0.90
2024-01-16T15:07:45.849Z,0.95
2024-01-16T15:10:10.800Z,1.00
2024-01-16T15:12:33.977Z,1.45
2024-01-16T15:14:57.320Z,1.80
2024-01-16T15:17:23.070Z,2.40
2024-01-16T15:19:46.919Z,1.85
2024-01-16T15:22:09.728Z,2.38
2024-01-16T15:24:32.615Z,2.65
2024-01-16T15:26:57.089Z,2.30
2024-01-16T15:29:20.005Z,2.33
2024-01-16T15:31:42.804Z,1.90
2024-01-16T15:34:05.590Z,1.55
2024-01-16T15:36:28.456Z,1.70
2024-01-16T15:38:51.159Z,1.40
2024-01-16T15:41:14.093Z,1.20
2024-01-16T15:43:38.063Z,1.60
2024-01-16T15:46:01.349Z,1.50
2024-01-16T15:48:24.999Z,1.42
2024-01-16T15:50:48.190Z,1.37
2024-01-16T15:53:10.999Z,1.60
2024-01-16T15:55:33.668Z,1.70
2024-01-16T15:57:56.452Z,1.60
2024-01-16T16:00:20.802Z,2.20
2024-01-16T16:02:47.482Z,2.10
2024-01-16T16:05:10.352Z,2.70
2024-01-16T16:07:33.478Z,2.72
2024-01-16T16:09:56.239Z,2.80
2024-01-16T16:12:20.261Z,3.25
2024-01-16T16:14:43.152Z,3.23
2024-01-16T16:17:05.854Z,3.60
2024-01-16T16:19:32.265Z,4.35
2024-01-16T16:21:55.299Z,6.32
2024-01-16T16:24:19.409Z,5.80
2024-01-16T16:26:44.636Z,5.30
2024-01-16T16:29:10.231Z,5.55
2024-01-16T16:31:33.793Z,6.03
2024-01-16T16:33:56.817Z,5.68
2024-01-16T16:36:19.882Z,6.25
2024-01-16T16:38:42.995Z,5.80
2024-01-16T16:41:05.694Z,5.90
2024-01-16T16:43:28.971Z,6.22
2024-01-16T16:45:51.893Z,5.88
2024-01-16T16:48:16.272Z,6.20
2024-01-16T16:50:39.352Z,5.90
2024-01-16T16:53:02.316Z,5.60
2024-01-16T16:55:25.484Z,6.32
2024-01-16T16:57:48.579Z,6.07
2024-01-16T17:00:16.397Z,6.18
2024-01-16T17:02:39.554Z,6.30
2024-01-16T17:05:02.561Z,5.82
2024-01-16T17:07:25.683Z,6.47
2024-01-16T17:09:48.770Z,6.45
2024-01-16T17:12:12.674Z,6.70
2024-01-16T17:14:36.448Z,6.33
2024-01-16T17:16:59.533Z,6.47
2024-01-16T17:19:22.714Z,6.20
2024-01-16T17:21:45.556Z,6.05
2024-01-16T17:24:12.527Z,6.85
2024-01-16T17:26:40.719Z,6.17
2024-01-16T17:29:03.858Z,6.32
2024-01-16T17:31:27.507Z,7.13
2024-01-16T17:33:50.578Z,7.28
2024-01-16T17:36:15.053Z,7.20
2024-01-16T17:38:38.992Z,7.43
2024-01-16T17:41:02.963Z,6.70
2024-01-16T17:43:26.073Z,6.65
2024-01-16T17:45:49.194Z,6.25
2024-01-16T17:48:18.175Z,6.80
2024-01-16T17:50:45.520Z,6.47
2024-01-16T17:53:08.449Z,6.93
2024-01-16T17:55:34.411Z,6.90
2024-01-16T17:57:58.322Z,6.57
2024-01-16T18:00:24.032Z,6.80
2024-01-16T18:02:48.225Z,7.17
2024-01-16T18:05:14.060Z,6.63
2024-01-16T18:07:38.872Z,7.25
2024-01-16T18:10:02.789Z,7.32
2024-01-16T18:12:28.498Z,7.30
2024-01-16T18:14:51.361Z,7.60
2024-01-16T18:17:14.795Z,6.57
2024-01-16T18:19:37.641Z,6.70
2024-01-16T18:22:09.234Z,6.60
2024-01-16T18:24:31.860Z,7.45
2024-01-16T18:26:56.328Z,11.00
2024-01-16T18:29:21.782Z,13.20
2024-01-16T18:31:45.429Z,12.02
2024-01-16T18:34:15.078Z,11.82
2024-01-16T18:36:37.983Z,11.43
2024-01-16T18:39:01.026Z,11.40
2024-01-16T18:41:24.331Z,11.45
2024-01-16T18:43:49.422Z,10.93
2024-01-16T18:46:15.918Z,10.73
2024-01-16T18:48:39.327Z,11.93
2024-01-16T18:51:03.118Z,10.70
2024-01-16T18:53:26.572Z,11.02
2024-01-16T18:55:53.728Z,10.75
2024-01-16T18:58:18.184Z,10.00
2024-01-16T19:00:43.583Z,10.02
2024-01-16T19:03:06.544Z,9.37
2024-01-16T19:05:31.545Z,10.00
2024-01-16T19:07:54.506Z,10.35
2024-01-16T19:10:17.789Z,10.85
2024-01-16T19:12:48.108Z,11.02
2024-01-16T19:15:18.647Z,11.73
2024-01-16T19:17:42.096Z,11.90
2024-01-16T19:20:10.816Z,13.43
2024-01-16T19:22:33.612Z,12.88
2024-01-16T19:24:56.353Z,13.23
2024-01-16T19:27:22.281Z,13.73
2024-01-16T19:29:45.353Z,13.98
2024-01-16T19:32:09.502Z,16.25
2024-01-16T19:34:32.697Z,15.88
2024-01-16T19:36:56.737Z,18.27
2024-01-16T19:39:22.493Z,21.97
2024-01-16T19:41:45.983Z,23.45
2024-01-16T19:44:12.079Z,23.30
2024-01-16T19:46:34.906Z,21.75
2024-01-16T19:48:57.792Z,20.35
2024-01-16T19:51:20.898Z,21.17
2024-01-16T19:53:43.934Z,18.80
2024-01-16T19:56:08.474Z,17.42
2024-01-16T19:58:31.736Z,16.50
2024-01-16T20:00:54.672Z,14.65
2024-01-16T20:03:18.523Z,13.17
2024-01-16T20:05:44.401Z,13.77
2024-01-16T20:08:08.264Z,15.15
2024-01-16T20:10:30.994Z,14.80
2024-01-16T20:12:53.771Z,16.08
2024-01-16T20:15:22.531Z,13.10
2024-01-16T20:17:47.006Z,13.18
2024-01-16T20:20:11.796Z,13.80
2024-01-16T20:22:35.312Z,13.20
2024-01-16T20:24:58.676Z,13.15
2024-01-16T20:27:21.420Z,12.47
2024-01-16T20:29:44.324Z,13.25
2024-01-16T20:32:07.352Z,13.75
2024-01-16T20:34:31.481Z,12.52
2024-01-16T20:36:56.317Z,16.33
2024-01-16T20:39:19.020Z,17.20
2024-01-16T20:41:43.239Z,20.00
2024-01-16T20:44:06.406Z,22.90
2024-01-16T20:46:29.388Z,22.27
2024-01-16T20:48:52.494Z,21.02
2024-01-16T20:51:17.212Z,20.70
2024-01-16T20:53:41.040Z,21.30
2024-01-16T20:56:04.051Z,25.00
2024-01-16T20:58:27.989Z,25.00
2024-01-16T21:00:52.159Z,25.58
2024-01-16T21:03:19.332Z,24.80
2024-01-16T21:05:42.482Z,24.73
2024-01-16T21:08:06.733Z,26.30
2024-01-16T21:10:29.719Z,25.08
2024-01-16T21:12:52.638Z,24.55
2024-01-16T21:15:15.873Z,25.30
2024-01-16T21:17:39.621Z,24.48
2024-01-16T21:20:02.432Z,22.50
2024-01-16T21:22:33.283Z,21.88
2024-01-16T21:24:59.299Z,20.83
2024-01-16T21:27:22.148Z,20.83
2024-01-16T21:29:45.747Z,20.40
2024-01-16T21:32:08.591Z,20.45
2024-01-16T21:34:31.410Z,20.85
2024-01-16T21:36:54.364Z,21.73
2024-01-16T21:39:17.323Z,22.83
2024-01-16T21:41:40.769Z,23.75
2024-01-16T21:44:06.476Z,25.35
2024-01-16T21:46:29.166Z,24.08
2024-01-16T21:48:52.232Z,25.30
2024-01-16T21:51:15.172Z,24.23
2024-01-16T21:53:38.049Z,25.55
2024-01-16T21:56:00.847Z,28.15
2024-01-16T21:58:23.584Z,28.00
2024-01-16T22:00:47.008Z,26.52
2024-01-16T22:03:10.926Z,27.30
2024-01-16T22:05:35.692Z,27.27
2024-01-16T22:07:58.586Z,26.20
2024-01-16T22:10:21.387Z,25.98
2024-01-16T22:12:44.228Z,25.67
2024-01-16T22:15:07.528Z,25.30
2024-01-16T22:17:30.696Z,24.75
2024-01-16T22:19:53.769Z,23.30
2024-01-16T22:22:16.560Z,22.65
2024-01-16T22:24:39.301Z,24.83
2024-01-16T22:27:02.163Z,24.43
2024-01-16T22:29:25.052Z,20.20
2024-01-16T22:31:48.370Z,23.70
2024-01-16T22:34:11.467Z,22.52
2024-01-16T22:36:34.638Z,25.20
2024-01-16T22:38:57.462Z,23.13
2024-01-16T22:41:20.965Z,23.17
2024-01-16T22:43:45.524Z,23.33
2024-01-16T22:46:09.082Z,22.73
2024-01-16T22:48:32.026Z,25.15
2024-01-16T22:50:54.840Z,24.43
2024-01-16T22:53:18.055Z,22.75
2024-01-16T22:55:42.829Z,23.60
2024-01-16T22:58:06.551Z,23.38
2024-01-16T23:00:30.672Z,23.42
2024-01-16T23:02:54.094Z,24.97
2024-01-16T23:05:21.276Z,22.88
2024-01-16T23:07:47.131Z,22.50
2024-01-16T23:10:10.158Z,22.00
2024-01-16T23:12:33.748Z,20.80
2024-01-16T23:14:56.560Z,20.07
2024-01-16T23:17:19.293Z,19.58
2024-01-16T23:19:42.134Z,19.58
2024-01-16T23:22:05.142Z,18.67
2024-01-16T23:24:29.293Z,20.90
2024-01-16T23:26:52.130Z,18.57
2024-01-16T23:29:14.941Z,19.95
2024-01-16T23:31:38.234Z,18.95
2024-01-16T23:34:01.018Z,18.00
2024-01-16T23:36:24.040Z,18.90
2024-01-16T23:38:47.143Z,20.00
2024-01-16T23:41:10.570Z,19.10
2024-01-16T23:43:34.715Z,20.35
2024-01-16T23:46:01.350Z,19.88
2024-01-16T23:48:24.914Z,21.10
2024-01-16T23:50:48.123Z,19.10
2024-01-16T23:53:11.556Z,18.48
2024-01-16T23:55:34.409Z,19.67
2024-01-16T23:57:57.740Z,19.05
